Time;durP1;ratioP1;P1;durP2;ratioP2;P2;SDS_P1;SDS_P2;PMS_P1;PMS_P2;Temp;Humidity;BMP_temperature;BMP_pressure;BME280_temperature;BME280_humidity;BME280_pressure;Samples;Min_cycle;Max_cycle;Signal;HPM_P1;HPM_P2
2022/08/10 16:32:52;;;;;;;30.80;11.20;;;;;;;;;;10378193;28;290406;-73
2022/08/10 16:37:57;;;;;;;;;;;;;;;;;;10390758;28;20057;-74
2022/08/10 16:43:04;;;;;;;25.83;9.20;;;;;;;;;;10403539;28;19931;-74
2022/08/10 16:48:10;;;;;;;29.67;12.32;;;;;;;;;;10418354;28;20171;-74
2022/08/10 16:53:16;;;;;;;23.13;8.48;;;;;;;;;;10395245;28;20104;-74
2022/08/10 16:58:26;;;;;;;20.70;7.20;;;;;;;;;;10403779;28;21128;-72
2022/08/10 17:03:33;;;;;;;19.40;6.78;;;;;;;;;;10372045;28;20259;-72
2022/08/10 17:08:41;;;;;;;18.15;7.03;;;;;;;;;;10443614;28;20045;-73
2022/08/10 17:13:44;;;;;;;18.80;7.57;;;;;;;;;;10433004;28;20164;-72
2022/08/10 17:18:50;;;;;;;18.08;6.95;;;;;;;;;;10450617;28;20072;-73
2022/08/10 17:23:57;;;;;;;19.08;6.28;;;;;;;;;;10445914;28;20148;-73
2022/08/10 17:29:10;;;;;;;18.13;6.80;;;;;;;;;;10446735;28;20683;-71
2022/08/10 17:34:18;;;;;;;20.65;6.65;;;;;;;;;;10440947;28;20041;-71
2022/08/10 17:39:28;;;;;;;22.80;6.82;;;;;;;;;;10445759;28;20075;-73
2022/08/10 17:44:36;;;;;;;20.58;6.45;;;;;;;;;;10400309;28;20481;-72
2022/08/10 17:49:43;;;;;;;17.02;5.70;;;;;;;;;;10430802;28;20041;-80
2022/08/10 17:54:53;;;;;;;17.60;6.07;;;;;;;;;;10429496;28;20053;-81
2022/08/10 18:00:01;;;;;;;13.60;5.07;;;;;;;;;;10417867;28;20045;-73
2022/08/10 18:05:10;;;;;;;32.28;10.15;;;;;;;;;;10417742;28;20458;-74
2022/08/10 18:57:24;;;;;;;24.33;9.32;;;;;;;;;;10609660;27;20108;-78
2022/08/10 19:02:49;;;;;;;25.38;9.13;;;;;;;;;;10570564;27;20085;-78
2022/08/10 19:08:17;;;;;;;21.05;8.10;;;;;;;;;;10528514;28;20521;-78
2022/08/10 19:13:32;;;;;;;20.30;7.90;;;;;;;;;;10557939;27;20036;-77
2022/08/10 19:18:51;;;;;;;17.20;7.60;;;;;;;;;;10547519;28;20398;-77
2022/08/10 19:24:03;;;;;;;17.08;6.95;;;;;;;;;;10543863;27;20088;-78
2022/08/10 19:29:23;;;;;;;20.42;7.75;;;;;;;;;;10543716;28;20089;-79
2022/08/10 19:34:39;;;;;;;18.23;6.50;;;;;;;;;;10540102;27;20051;-77
2022/08/10 19:39:52;;;;;;;;;;;;;;;;;;10540921;28;20058;-78
2022/08/10 19:45:06;;;;;;;15.57;7.20;;;;;;;;;;10544961;28;20022;-81
2022/08/10 19:50:13;;;;;;;14.68;6.25;;;;;;;;;;10584786;28;20480;-80
2022/08/10 19:55:26;;;;;;;17.27;7.38;;;;;;;;;;10616699;27;20046;-81
2022/08/10 20:00:38;;;;;;;14.02;6.30;;;;;;;;;;10566333;28;20104;-82
2022/08/10 20:05:51;;;;;;;13.82;6.20;;;;;;;;;;10543662;28;20036;-81
2022/08/10 20:11:01;;;;;;;16.95;7.13;;;;;;;;;;10548943;28;20043;-81
2022/08/10 20:16:10;;;;;;;16.33;6.50;;;;;;;;;;10547874;28;20098;-78
2022/08/10 20:21:21;;;;;;;11.68;5.85;;;;;;;;;;10513427;28;20048;-77
2022/08/10 20:26:27;;;;;;;15.60;6.03;;;;;;;;;;10535589;28;20101;-77
2022/08/10 20:31:39;;;;;;;16.00;6.18;;;;;;;;;;10528075;28;20050;-77
2022/08/10 20:36:51;;;;;;;13.63;5.57;;;;;;;;;;10538707;28;20492;-78
2022/08/10 20:42:03;;;;;;;13.57;5.00;;;;;;;;;;10547282;28;20742;-78
2022/08/10 20:47:14;;;;;;;12.38;5.20;;;;;;;;;;10543110;28;20039;-79
